Time;durP1;ratioP1;P1;durP2;ratioP2;P2;SDS_P1;SDS_P2;PMS_P1;PMS_P2;Temp;Humidity;BMP_temperature;BMP_pressure;BME280_temperature;BME280_humidity;BME280_pressure;Samples;Min_cycle;Max_cycle;Signal;HPM_P1;HPM_P2
2024/02/02 00:00:47;;;;;;;0.50;0.50;;;4.00;99.90;;;;;;4952733;28;20267;-81
2024/02/02 00:03:14;;;;;;;1.95;1.50;;;4.10;99.90;;;;;;4964876;28;20191;-79
2024/02/02 00:05:42;;;;;;;0.50;0.50;;;4.10;99.90;;;;;;4932600;28;20595;-80
2024/02/02 00:08:09;;;;;;;0.52;0.52;;;4.00;99.90;;;;;;4955574;28;20200;-84
2024/02/02 00:10:39;;;;;;;1.42;1.33;;;4.10;99.90;;;;;;4959452;28;20214;-80
2024/02/02 00:13:07;;;;;;;1.23;1.13;;;4.20;99.90;;;;;;4964241;28;20503;-83
2024/02/02 00:15:34;;;;;;;0.63;0.63;;;4.10;99.90;;;;;;4957857;28;20558;-81
2024/02/02 00:18:03;;;;;;;0.60;0.60;;;4.00;99.90;;;;;;4963243;28;20208;-83
2024/02/02 00:20:31;;;;;;;0.55;0.55;;;4.10;99.90;;;;;;4952919;28;20204;-81
2024/02/02 00:22:58;;;;;;;0.60;0.60;;;4.00;99.90;;;;;;4965905;28;20233;-82
2024/02/02 00:25:25;;;;;;;0.80;0.80;;;4.10;99.90;;;;;;4948702;29;20258;-81
2024/02/02 00:27:52;;;;;;;0.90;0.90;;;4.10;99.90;;;;;;4955116;28;20231;-82
2024/02/02 00:30:19;;;;;;;2.88;1.50;;;4.00;99.90;;;;;;4956206;28;20247;-81
2024/02/02 00:32:47;;;;;;;1.85;1.75;;;4.00;99.90;;;;;;4957620;28;20519;-81
2024/02/02 00:35:15;;;;;;;0.93;0.93;;;4.00;99.90;;;;;;4957210;28;20210;-80
2024/02/02 00:37:44;;;;;;;3.90;1.80;;;4.10;99.90;;;;;;4951784;28;20199;-81
2024/02/02 00:40:11;;;;;;;0.90;0.90;;;4.20;99.90;;;;;;4953464;28;20200;-85
2024/02/02 00:42:38;;;;;;;1.98;1.60;;;4.10;99.90;;;;;;4959075;28;20211;-81
2024/02/02 00:45:06;;;;;;;0.40;0.40;;;4.00;99.90;;;;;;4951224;28;20823;-83
2024/02/02 00:47:33;;;;;;;0.50;0.50;;;4.00;99.90;;;;;;4940976;29;20220;-79
2024/02/02 00:50:01;;;;;;;1.30;1.13;;;4.00;99.90;;;;;;4946696;28;20234;-82
2024/02/02 00:52:28;;;;;;;0.50;0.50;;;4.00;99.90;;;;;;4955921;28;20203;-82
2024/02/02 00:54:55;;;;;;;0.50;0.50;;;4.00;99.90;;;;;;4937297;28;20206;-78
2024/02/02 00:57:22;;;;;;;2.08;1.98;;;4.00;99.90;;;;;;4957110;28;20555;-83
2024/02/02 00:59:50;;;;;;;0.70;0.70;;;4.00;99.90;;;;;;4940210;28;20424;-79
2024/02/02 01:02:17;;;;;;;0.98;0.98;;;4.00;99.90;;;;;;4965271;28;20199;-81
2024/02/02 01:04:44;;;;;;;0.40;0.40;;;3.90;99.90;;;;;;4960349;29;20215;-80
2024/02/02 01:07:15;;;;;;;0.75;0.75;;;3.90;99.90;;;;;;4961257;28;20227;-81
2024/02/02 01:09:44;;;;;;;0.50;0.50;;;3.80;99.90;;;;;;4972372;28;20203;-82
2024/02/02 01:12:12;;;;;;;0.70;0.70;;;3.80;99.90;;;;;;4962003;28;20199;-82
2024/02/02 01:14:40;;;;;;;2.80;2.70;;;3.70;99.90;;;;;;4978219;28;20211;-80
2024/02/02 01:17:06;;;;;;;0.50;0.50;;;3.80;99.90;;;;;;4954101;28;20251;-79
2024/02/02 01:19:35;;;;;;;0.50;0.50;;;3.70;99.90;;;;;;4963380;28;20199;-83
2024/02/02 01:22:02;;;;;;;0.40;0.40;;;3.80;99.90;;;;;;4941855;29;20207;-80
2024/02/02 01:24:30;;;;;;;5.38;2.58;;;3.80;99.90;;;;;;4959510;28;20257;-82
2024/02/02 01:26:58;;;;;;;0.70;0.70;;;3.80;99.90;;;;;;4977544;28;20368;-81
2024/02/02 01:29:26;;;;;;;3.80;3.47;;;3.70;99.90;;;;;;4969537;28;20204;-83
2024/02/02 01:31:53;;;;;;;0.60;0.60;;;3.60;99.90;;;;;;4949225;28;20204;-81
2024/02/02 01:34:22;;;;;;;0.50;0.50;;;3.70;99.90;;;;;;4960133;28;20235;-82
2024/02/02 01:36:49;;;;;;;1.17;1.17;;;3.90;99.90;;;;;;4963570;28;20210;-87
2024/02/02 01:39:16;;;;;;;0.50;0.50;;;3.90;99.90;;;;;;4961390;28;20203;-81
2024/02/02 01:41:47;;;;;;;0.75;0.75;;;3.90;99.90;;;;;;4988737;28;20187;-81
2024/02/02 01:44:14;;;;;;;3.42;1.15;;;4.10;99.90;;;;;;4991378;28;20226;-82
2024/02/02 01:46:49;;;;;;;0.43;0.43;;;4.00;99.90;;;;;;4977657;28;20214;-80
2024/02/02 01:49:16;;;;;;;1.38;1.38;;;4.00;99.90;;;;;;4949912;28;20200;-79
2024/02/02 01:51:43;;;;;;;1.40;1.30;;;4.00;99.90;;;;;;4961175;28;20199;-82
2024/02/02 01:54:11;;;;;;;1.38;1.27;;;4.10;99.90;;;;;;4963791;28;20228;-81
2024/02/02 01:56:38;;;;;;;0.70;0.70;;;4.10;99.90;;;;;;4966436;28;20214;-81
2024/02/02 01:59:07;;;;;;;1.38;1.38;;;4.00;99.90;;;;;;4961842;28;20266;-81
2024/02/02 02:01:35;;;;;;;0.65;0.65;;;4.00;99.90;;;;;;4969324;29;20271;-79
2024/02/02 02:04:02;;;;;;;0.60;0.60;;;3.90;99.90;;;;;;4972307;28;20214;-79
2024/02/02 02:06:29;;;;;;;1.35;1.35;;;3.90;99.90;;;;;;4955781;28;20210;-81
2024/02/02 02:08:56;;;;;;;0.50;0.50;;;3.90;99.90;;;;;;4968310;28;20212;-80
2024/02/02 02:11:23;;;;;;;0.40;0.40;;;3.70;99.90;;;;;;4966179;28;20555;-80
2024/02/02 02:13:51;;;;;;;0.60;0.60;;;3.70;99.90;;;;;;4971866;28;20251;-82
2024/02/02 02:16:19;;;;;;;0.50;0.50;;;3.60;99.90;;;;;;4967790;28;20207;-82
2024/02/02 02:18:46;;;;;;;0.50;0.50;;;3.60;99.90;;;;;;4968253;28;20226;-82
2024/02/02 02:21:28;;;;;;;0.70;0.70;;;3.50;99.90;;;;;;4955339;28;20453;-80
2024/02/02 02:23:57;;;;;;;2.90;2.70;;;3.60;99.90;;;;;;4958597;28;20199;-80
2024/02/02 02:26:26;;;;;;;0.50;0.50;;;3.70;99.90;;;;;;4961763;29;20200;-83
2024/02/02 02:28:53;;;;;;;0.50;0.50;;;3.80;99.90;;;;;;4968974;28;20193;-81
2024/02/02 02:31:20;;;;;;;0.45;0.45;;;3.90;99.90;;;;;;4976268;28;20196;-83
2024/02/02 02:33:47;;;;;;;0.40;0.40;;;3.90;99.90;;;;;;4970124;28;20243;-82
2024/02/02 02:36:14;;;;;;;2.60;1.85;;;3.90;99.90;;;;;;4960761;29;20542;-81
2024/02/02 02:38:43;;;;;;;2.55;2.40;;;3.90;99.90;;;;;;4943670;29;20204;-78
2024/02/02 02:41:10;;;;;;;0.43;0.43;;;4.00;99.90;;;;;;4949686;28;20234;-82
2024/02/02 02:43:39;;;;;;;1.90;1.83;;;3.90;99.90;;;;;;4936978;29;20215;-82
2024/02/02 02:46:07;;;;;;;0.50;0.50;;;3.90;99.90;;;;;;4961702;28;20594;-80
2024/02/02 02:48:34;;;;;;;1.92;1.83;;;3.80;99.90;;;;;;4957829;28;20286;-82
2024/02/02 02:51:01;;;;;;;3.17;2.88;;;3.80;99.90;;;;;;4958721;28;20231;-82
2024/02/02 02:53:28;;;;;;;0.50;0.50;;;3.90;99.90;;;;;;4942268;29;20210;-79
2024/02/02 02:55:56;;;;;;;0.60;0.60;;;3.80;99.90;;;;;;4959195;28;20207;-82
2024/02/02 02:58:23;;;;;;;2.45;1.33;;;3.90;99.90;;;;;;4952822;29;20276;-83
2024/02/02 03:00:52;;;;;;;0.52;0.52;;;3.90;99.90;;;;;;4961927;28;20199;-80
2024/02/02 03:03:19;;;;;;;0.50;0.50;;;4.00;99.90;;;;;;4974125;28;20208;-81
2024/02/02 03:05:47;;;;;;;5.70;1.30;;;4.00;99.90;;;;;;4960886;28;20231;-81
2024/02/02 03:08:14;;;;;;;0.50;0.50;;;4.00;99.90;;;;;;4950306;28;20238;-80
2024/02/02 03:10:41;;;;;;;3.20;3.10;;;4.00;99.90;;;;;;4954597;29;20266;-83
2024/02/02 03:13:09;;;;;;;0.90;0.90;;;4.00;99.90;;;;;;4975137;28;20204;-80
2024/02/02 03:15:38;;;;;;;0.95;0.95;;;4.00;99.90;;;;;;4934655;29;20220;-80
2024/02/02 03:18:05;;;;;;;0.63;0.63;;;3.90;99.90;;;;;;4947564;28;20497;-83
2024/02/02 03:20:33;;;;;;;1.23;1.17;;;3.90;99.90;;;;;;4969090;28;20232;-81
2024/02/02 03:23:01;;;;;;;0.50;0.50;;;4.00;99.90;;;;;;4983763;28;20208;-87
2024/02/02 03:25:28;;;;;;;0.75;0.75;;;4.00;99.90;;;;;;4981236;28;20246;-81
2024/02/02 03:27:54;;;;;;;2.05;1.92;;;3.90;99.90;;;;;;4956465;28;20227;-81
2024/02/02 03:30:21;;;;;;;0.40;0.40;;;3.90;99.90;;;;;;4950705;28;20234;-80
2024/02/02 03:32:49;;;;;;;7.05;1.73;;;3.80;99.90;;;;;;4964380;28;20232;-84
2024/02/02 03:35:17;;;;;;;0.40;0.40;;;3.80;99.90;;;;;;4967687;28;20224;-83
2024/02/02 03:37:44;;;;;;;1.35;1.25;;;3.50;99.90;;;;;;4967829;28;20204;-80
2024/02/02 03:40:11;;;;;;;0.40;0.40;;;3.70;99.90;;;;;;4960275;28;20290;-85
2024/02/02 03:42:38;;;;;;;0.75;0.75;;;3.60;99.90;;;;;;4987545;28;20215;-81
2024/02/02 03:45:07;;;;;;;1.35;1.08;;;3.60;99.90;;;;;;4955696;28;20234;-81
2024/02/02 03:47:34;;;;;;;1.15;1.15;;;3.60;99.90;;;;;;4961577;28;20204;-79
2024/02/02 03:50:01;;;;;;;0.85;0.85;;;3.60;99.90;;;;;;4941083;29;20215;-82
2024/02/02 03:52:31;;;;;;;0.40;0.40;;;3.60;99.90;;;;;;4937291;29;20204;-83
2024/02/02 03:54:58;;;;;;;0.75;0.75;;;3.50;99.90;;;;;;4945319;29;20388;-82
2024/02/02 03:57:25;;;;;;;1.30;1.13;;;3.40;99.90;;;;;;4966391;28;20204;-84
2024/02/02 03:59:52;;;;;;;1.40;1.40;;;3.20;99.90;;;;;;4938383;29;20204;-81
2024/02/02 04:02:19;;;;;;;0.47;0.47;;;3.20;99.90;;;;;;4938247;29;20204;-82
2024/02/02 04:04:46;;;;;;;0.75;0.75;;;3.30;99.90;;;;;;4940376;29;20465;-80
2024/02/02 04:07:13;;;;;;;0.40;0.40;;;3.30;99.90;;;;;;4945161;28;20254;-82
2024/02/02 04:09:40;;;;;;;1.23;1.23;;;3.10;99.90;;;;;;4961649;28;20239;-80
2024/02/02 04:12:07;;;;;;;0.40;0.40;;;3.10;99.90;;;;;;4945236;29;20196;-83
2024/02/02 04:14:35;;;;;;;0.43;0.43;;;3.30;99.90;;;;;;4958432;28;20215;-81
2024/02/02 04:17:02;;;;;;;1.65;0.80;;;3.30;99.90;;;;;;4961713;28;20276;-80
2024/02/02 04:19:29;;;;;;;0.88;0.88;;;3.40;99.90;;;;;;4941136;28;20272;-80
2024/02/02 04:21:56;;;;;;;0.70;0.70;;;3.40;99.90;;;;;;4939033;29;20228;-80
2024/02/02 04:24:23;;;;;;;2.00;0.98;;;3.40;99.90;;;;;;4958300;28;20223;-78
2024/02/02 04:26:50;;;;;;;1.65;1.58;;;3.30;99.90;;;;;;4960202;28;20246;-81
2024/02/02 04:29:18;;;;;;;0.55;0.55;;;3.40;99.90;;;;;;4964606;28;20212;-83
2024/02/02 04:31:45;;;;;;;1.35;1.00;;;3.50;99.90;;;;;;4949697;28;20208;-80
2024/02/02 04:34:12;;;;;;;49.42;3.50;;;3.50;99.90;;;;;;4959203;28;20243;-83
2024/02/02 04:36:40;;;;;;;3.03;2.67;;;3.50;99.90;;;;;;4965611;28;20270;-82
2024/02/02 04:39:08;;;;;;;0.40;0.40;;;3.40;99.90;;;;;;4966411;28;20226;-81
2024/02/02 04:41:35;;;;;;;0.60;0.60;;;3.40;99.90;;;;;;4954271;28;20237;-80
2024/02/02 04:44:02;;;;;;;2.90;1.52;;;3.40;99.90;;;;;;4956427;28;20200;-80
2024/02/02 04:46:29;;;;;;;0.40;0.40;;;3.50;99.90;;;;;;4933254;29;20224;-82
2024/02/02 04:48:56;;;;;;;0.50;0.50;;;3.50;99.90;;;;;;4943524;29;20392;-81
2024/02/02 04:51:24;;;;;;;2.22;1.38;;;3.50;99.90;;;;;;4962644;28;20204;-81
2024/02/02 04:53:51;;;;;;;2.55;1.95;;;3.50;99.90;;;;;;4941693;29;20210;-81
2024/02/02 04:56:18;;;;;;;0.50;0.50;;;3.50;99.90;;;;;;4945271;28;20203;-81
2024/02/02 04:58:45;;;;;;;1.30;1.30;;;3.50;99.90;;;;;;4958242;28;20192;-83
2024/02/02 05:01:12;;;;;;;0.65;0.65;;;3.50;99.90;;;;;;4962325;28;20487;-82
2024/02/02 05:03:39;;;;;;;1.08;1.08;;;3.40;99.90;;;;;;4953842;28;20267;-83
2024/02/02 05:06:07;;;;;;;0.60;0.60;;;3.50;99.90;;;;;;4965992;28;20266;-80
2024/02/02 05:08:33;;;;;;;0.45;0.45;;;3.50;99.90;;;;;;4958701;28;20228;-82
2024/02/02 05:11:01;;;;;;;1.27;1.17;;;3.60;99.90;;;;;;4962843;29;20211;-80
2024/02/02 05:13:27;;;;;;;0.75;0.75;;;3.50;99.90;;;;;;4934389;28;20278;-85
2024/02/02 05:15:55;;;;;;;0.40;0.40;;;3.50;99.90;;;;;;4959274;28;20215;-83
2024/02/02 05:18:22;;;;;;;1.25;1.25;;;3.40;99.90;;;;;;4954741;28;20534;-80
2024/02/02 05:20:51;;;;;;;0.40;0.40;;;3.50;99.90;;;;;;4957223;28;20263;-79
2024/02/02 05:23:18;;;;;;;0.65;0.65;;;3.60;99.90;;;;;;4952435;28;20199;-80
2024/02/02 05:25:45;;;;;;;2.05;1.20;;;3.60;99.90;;;;;;4933000;29;20224;-81
2024/02/02 05:28:13;;;;;;;0.40;0.40;;;3.60;99.90;;;;;;4963051;28;20201;-77
2024/02/02 05:30:41;;;;;;;2.15;1.08;;;3.50;99.90;;;;;;4966346;28;20204;-80
2024/02/02 05:33:09;;;;;;;0.40;0.40;;;3.60;99.90;;;;;;4963770;28;20200;-83
2024/02/02 05:35:36;;;;;;;1.60;1.50;;;3.50;99.90;;;;;;4966430;28;20211;-78
2024/02/02 05:38:04;;;;;;;0.70;0.70;;;3.60;99.90;;;;;;4946196;29;20211;-79
2024/02/02 05:40:34;;;;;;;0.60;0.60;;;3.60;99.90;;;;;;4966646;28;20218;-78
2024/02/02 05:43:01;;;;;;;0.93;0.93;;;3.60;99.90;;;;;;4959224;28;20211;-79
2024/02/02 05:45:31;;;;;;;2.80;2.70;;;3.60;99.90;;;;;;4961434;28;20417;-82
2024/02/02 05:47:58;;;;;;;0.93;0.93;;;3.60;99.90;;;;;;4957023;28;20622;-81
2024/02/02 05:50:26;;;;;;;0.85;0.85;;;3.60;99.90;;;;;;4936291;28;20203;-83
2024/02/02 05:52:52;;;;;;;0.93;0.93;;;3.60;99.90;;;;;;4945122;28;20230;-83
2024/02/02 05:55:20;;;;;;;0.50;0.50;;;3.50;99.90;;;;;;4954513;28;20208;-80
2024/02/02 05:57:46;;;;;;;0.60;0.60;;;3.50;99.90;;;;;;4969773;28;20262;-79
2024/02/02 06:00:18;;;;;;;0.40;0.40;;;3.50;99.90;;;;;;4940134;28;20207;-88
2024/02/02 06:02:46;;;;;;;2.05;1.95;;;3.50;99.90;;;;;;4958837;28;20271;-81
2024/02/02 06:05:13;;;;;;;0.52;0.52;;;3.40;99.90;;;;;;4949068;28;20212;-80
2024/02/02 06:07:40;;;;;;;1.02;1.02;;;3.40;99.90;;;;;;4944956;28;20515;-83
2024/02/02 06:10:08;;;;;;;0.40;0.40;;;3.40;99.90;;;;;;4950342;28;20216;-81
2024/02/02 06:12:36;;;;;;;0.40;0.40;;;3.30;99.90;;;;;;4933746;28;20204;-82
2024/02/02 06:15:06;;;;;;;2.70;2.60;;;3.30;99.90;;;;;;4950323;28;20232;-81
2024/02/02 06:17:34;;;;;;;1.67;1.50;;;3.30;99.90;;;;;;4949879;28;20254;-80
2024/02/02 06:20:02;;;;;;;0.40;0.40;;;3.20;99.90;;;;;;4943778;29;20248;-81
2024/02/02 06:22:30;;;;;;;0.85;0.85;;;3.90;99.90;;;;;;4957935;28;20252;-80
2024/02/02 06:24:57;;;;;;;2.20;1.98;;;3.40;99.90;;;;;;4945214;29;20210;-82
2024/02/02 06:27:26;;;;;;;1.13;0.75;;;3.30;99.90;;;;;;4940735;28;20253;-81
2024/02/02 06:29:54;;;;;;;1.15;1.15;;;3.30;99.90;;;;;;4962602;28;20228;-83
2024/02/02 06:32:22;;;;;;;0.70;0.68;;;3.30;99.90;;;;;;4950685;28;20220;-79
2024/02/02 06:34:55;;;;;;;2.05;1.85;;;3.40;99.90;;;;;;4950854;28;20255;-79
2024/02/02 06:37:23;;;;;;;0.70;0.70;;;3.40;99.90;;;;;;4942052;29;20207;-84
2024/02/02 06:39:52;;;;;;;0.40;0.40;;;3.50;99.90;;;;;;4960133;28;20200;-81
2024/02/02 06:42:20;;;;;;;1.13;1.10;;;3.60;99.90;;;;;;4964697;28;20235;-81
2024/02/02 06:44:50;;;;;;;0.65;0.65;;;3.50;99.90;;;;;;4963692;28;20200;-81
2024/02/02 06:47:17;;;;;;;0.70;0.70;;;3.50;99.90;;;;;;4962575;28;20232;-80
2024/02/02 06:49:44;;;;;;;1.05;1.05;;;3.60;99.90;;;;;;4947109;29;20520;-84
2024/02/02 06:52:13;;;;;;;28.50;2.28;;;3.60;99.90;;;;;;4963370;28;20200;-81
2024/02/02 06:54:43;;;;;;;2.28;0.95;;;3.70;99.90;;;;;;4962686;28;20231;-82
2024/02/02 06:57:11;;;;;;;0.77;0.77;;;3.90;99.90;;;;;;4959348;28;20444;-79
2024/02/02 06:59:38;;;;;;;0.93;0.93;;;3.70;99.90;;;;;;4925170;28;20208;-82
2024/02/02 07:02:18;;;;;;;0.40;0.40;;;3.70;99.90;;;;;;4965550;29;20239;-82
2024/02/02 07:04:47;;;;;;;1.65;1.42;;;3.80;99.90;;;;;;4960509;29;20199;-82
2024/02/02 07:07:14;;;;;;;2.05;1.95;;;3.80;99.90;;;;;;4963801;28;20267;-81
2024/02/02 07:09:57;;;;;;;0.65;0.65;;;3.80;99.90;;;;;;4955447;28;20496;-84
2024/02/02 07:12:53;;;;;;;0.50;0.50;;;3.90;99.90;;;;;;4941994;28;20238;-84
2024/02/02 07:15:21;;;;;;;2.13;1.98;;;4.00;99.90;;;;;;4946607;29;20238;-85
2024/02/02 07:17:49;;;;;;;0.40;0.40;;;4.00;99.90;;;;;;4964871;28;20257;-85
2024/02/02 07:20:23;;;;;;;1.13;1.13;;;4.00;99.90;;;;;;4979734;28;20202;-85
2024/02/02 07:22:56;;;;;;;0.90;0.90;;;4.00;99.90;;;;;;4972344;28;20184;-84
2024/02/02 07:25:26;;;;;;;0.93;0.93;;;4.00;99.90;;;;;;4963025;28;20231;-87
2024/02/02 07:28:07;;;;;;;1.02;1.02;;;4.00;99.90;;;;;;4962842;29;20252;-83
2024/02/02 07:30:54;;;;;;;0.85;0.85;;;4.00;99.90;;;;;;4970111;28;20255;-81
2024/02/02 07:33:40;;;;;;;1.05;1.05;;;4.10;99.90;;;;;;4945989;29;20211;-80
2024/02/02 07:36:30;;;;;;;0.52;0.52;;;4.20;99.90;;;;;;4955236;28;20203;-81
2024/02/02 07:38:59;;;;;;;0.85;0.85;;;4.40;99.90;;;;;;4954033;28;20227;-82
2024/02/02 07:41:28;;;;;;;1.40;1.40;;;4.30;99.90;;;;;;4948139;28;20428;-83
2024/02/02 07:43:59;;;;;;;0.80;0.80;;;4.30;99.90;;;;;;4945040;28;20387;-81
2024/02/02 07:46:27;;;;;;;0.95;0.95;;;4.30;99.90;;;;;;4956028;28;20247;-83
2024/02/02 07:48:55;;;;;;;1.25;0.73;;;4.30;99.90;;;;;;4956080;28;20211;-82
2024/02/02 07:51:24;;;;;;;0.90;0.90;;;4.40;99.90;;;;;;4933667;29;20536;-81
2024/02/02 07:53:52;;;;;;;3.20;1.20;;;4.40;99.90;;;;;;4956400;28;20192;-83
2024/02/02 07:56:22;;;;;;;0.80;0.80;;;4.40;99.90;;;;;;4957798;28;20288;-84
2024/02/02 07:58:49;;;;;;;2.42;2.22;;;4.50;99.90;;;;;;4964746;28;20448;-80
2024/02/02 08:01:16;;;;;;;1.00;1.00;;;4.50;99.90;;;;;;4958608;28;20219;-81
2024/02/02 08:03:43;;;;;;;0.50;0.50;;;4.50;99.90;;;;;;4946738;28;20207;-83
2024/02/02 08:06:12;;;;;;;0.55;0.55;;;4.60;99.90;;;;;;4953814;28;20223;-80
2024/02/02 08:08:41;;;;;;;1.17;1.17;;;4.60;99.90;;;;;;4955394;28;20215;-82
2024/02/02 08:11:08;;;;;;;1.40;1.27;;;4.60;99.90;;;;;;4948768;29;20247;-83
2024/02/02 08:13:35;;;;;;;0.50;0.50;;;4.70;99.90;;;;;;4961308;28;20578;-82
2024/02/02 08:16:04;;;;;;;0.70;0.70;;;4.80;99.90;;;;;;4953713;28;20235;-81
2024/02/02 08:18:32;;;;;;;3.92;3.63;;;4.80;99.90;;;;;;4931078;28;20249;-84
2024/02/02 08:21:02;;;;;;;0.65;0.65;;;4.90;99.90;;;;;;4967712;28;20207;-85
2024/02/02 08:23:30;;;;;;;1.15;1.15;;;4.80;99.90;;;;;;4941904;28;20253;-83
2024/02/02 08:25:57;;;;;;;0.90;0.90;;;5.00;99.90;;;;;;4954733;28;20339;-81
2024/02/02 08:28:24;;;;;;;1.15;1.15;;;5.00;99.90;;;;;;4950844;29;20282;-83
2024/02/02 08:30:51;;;;;;;0.75;0.75;;;5.00;99.90;;;;;;4931511;28;20208;-81
2024/02/02 08:33:18;;;;;;;6.00;1.77;;;5.00;99.90;;;;;;4958357;28;20397;-83
2024/02/02 08:35:46;;;;;;;2.00;1.90;;;5.10;99.90;;;;;;4960315;28;20203;-84
2024/02/02 08:38:14;;;;;;;2.05;1.95;;;5.10;99.90;;;;;;4942644;29;20272;-80
2024/02/02 08:40:45;;;;;;;1.23;1.23;;;5.10;99.90;;;;;;4947900;28;20209;-82
2024/02/02 08:43:16;;;;;;;1.02;1.02;;;5.20;99.90;;;;;;4963882;28;20203;-80
2024/02/02 08:45:58;;;;;;;1.05;1.05;;;5.20;99.90;;;;;;4957500;28;20301;-80
2024/02/02 08:48:33;;;;;;;1.65;0.85;;;5.30;99.90;;;;;;4954133;29;20224;-80
2024/02/02 08:51:01;;;;;;;3.78;1.63;;;5.40;99.90;;;;;;4958782;28;20273;-80
2024/02/02 08:53:29;;;;;;;2.22;2.08;;;5.50;99.90;;;;;;4951395;28;20209;-84
2024/02/02 08:56:01;;;;;;;0.50;0.50;;;5.50;99.90;;;;;;4952829;28;20220;-84
2024/02/02 08:58:34;;;;;;;1.02;1.02;;;5.60;99.90;;;;;;4953025;28;20210;-84
2024/02/02 09:01:03;;;;;;;0.73;0.73;;;5.60;99.90;;;;;;4944585;29;20230;-82
2024/02/02 09:03:43;;;;;;;1.02;1.02;;;5.70;99.90;;;;;;4953278;29;20261;-84
2024/02/02 09:06:42;;;;;;;1.67;1.05;;;5.60;99.90;;;;;;4948351;28;20242;-83
2024/02/02 09:09:14;;;;;;;0.70;0.70;;;5.90;99.90;;;;;;4962277;28;20252;-80
2024/02/02 09:11:47;;;;;;;0.70;0.70;;;6.10;99.90;;;;;;4933493;28;20211;-83
2024/02/02 09:14:17;;;;;;;0.50;0.50;;;6.70;99.90;;;;;;4951276;29;20448;-83
2024/02/02 09:16:50;;;;;;;0.50;0.50;;;7.00;99.90;;;;;;4958543;28;20209;-83
2024/02/02 09:19:24;;;;;;;1.23;1.23;;;6.70;99.90;;;;;;4943594;29;20265;-83
2024/02/02 09:21:52;;;;;;;1.58;1.55;;;6.50;99.90;;;;;;4937446;29;20203;-81
2024/02/02 09:24:43;;;;;;;0.50;0.50;;;6.40;99.90;;;;;;4958099;28;20199;-80
2024/02/02 09:27:14;;;;;;;0.80;0.80;;;6.40;99.90;;;;;;4961473;28;20228;-81
2024/02/02 09:29:47;;;;;;;0.40;0.40;;;6.20;99.90;;;;;;4939564;29;20217;-82
2024/02/02 09:32:17;;;;;;;1.42;1.33;;;6.30;99.90;;;;;;4957386;28;20207;-82
2024/02/02 09:34:45;;;;;;;0.50;0.50;;;6.50;99.90;;;;;;4944503;29;20214;-83
2024/02/02 09:37:29;;;;;;;2.22;2.15;;;6.60;99.90;;;;;;4974229;28;20207;-81
2024/02/02 09:39:56;;;;;;;3.53;3.22;;;6.80;99.90;;;;;;4959685;28;20214;-84
2024/02/02 09:42:53;;;;;;;2.15;2.05;;;7.10;99.90;;;;;;4949471;29;20488;-80
2024/02/02 09:45:36;;;;;;;0.60;0.60;;;7.30;99.90;;;;;;4933634;29;20241;-83
2024/02/02 09:48:19;;;;;;;0.50;0.50;;;7.40;99.90;;;;;;4937891;28;20274;-82
2024/02/02 09:51:09;;;;;;;0.50;0.50;;;7.10;99.90;;;;;;4957204;28;20415;-80
2024/02/02 09:53:50;;;;;;;0.50;0.50;;;7.10;99.90;;;;;;4966018;29;20207;-84
2024/02/02 09:56:27;;;;;;;2.78;1.98;;;6.80;99.90;;;;;;4966754;28;20218;-84
2024/02/02 09:59:08;;;;;;;0.55;0.55;;;6.50;99.90;;;;;;4958879;28;20230;-85
2024/02/02 10:02:02;;;;;;;0.50;0.50;;;6.60;99.90;;;;;;4949833;28;20231;-79
2024/02/02 10:04:42;;;;;;;0.50;0.50;;;6.80;99.90;;;;;;4952621;28;20296;-85
2024/02/02 10:07:47;;;;;;;0.50;0.50;;;6.60;99.90;;;;;;4953504;28;20435;-81
2024/02/02 10:10:45;;;;;;;0.50;0.50;;;6.60;99.90;;;;;;4941528;29;20237;-81
2024/02/02 10:13:33;;;;;;;0.80;0.80;;;7.10;99.90;;;;;;4950514;28;20199;-82
2024/02/02 10:16:24;;;;;;;0.70;0.70;;;7.50;99.90;;;;;;4961745;28;20337;-80
2024/02/02 10:19:46;;;;;;;0.60;0.60;;;7.90;99.90;;;;;;4947827;28;20297;-81
2024/02/02 10:22:26;;;;;;;0.70;0.70;;;7.70;99.90;;;;;;4956861;29;20545;-81
2024/02/02 10:24:56;;;;;;;1.20;1.17;;;7.70;99.90;;;;;;4955356;28;20450;-82
2024/02/02 10:27:48;;;;;;;0.70;0.70;;;7.70;99.90;;;;;;4954338;28;20311;-82
2024/02/02 10:30:46;;;;;;;0.50;0.50;;;7.80;99.90;;;;;;4955314;28;20241;-82
2024/02/02 10:33:43;;;;;;;0.60;0.60;;;7.70;99.90;;;;;;4952573;28;20207;-84
2024/02/02 10:36:47;;;;;;;1.40;1.40;;;7.70;99.90;;;;;;4957571;28;20211;-80
2024/02/02 10:39:45;;;;;;;6.78;2.45;;;7.90;99.90;;;;;;4946719;28;20203;-82
2024/02/02 10:42:36;;;;;;;0.70;0.70;;;8.20;99.90;;;;;;4956763;28;20199;-80
2024/02/02 10:45:17;;;;;;;0.60;0.60;;;8.00;99.90;;;;;;4951825;28;20207;-81
2024/02/02 10:48:07;;;;;;;1.42;1.42;;;7.80;99.90;;;;;;4944399;28;20259;-84
2024/02/02 10:50:59;;;;;;;0.60;0.60;;;7.50;99.90;;;;;;4955311;28;20387;-81
2024/02/02 10:53:44;;;;;;;1.10;1.10;;;7.60;99.90;;;;;;4948306;28;20279;-83
2024/02/02 10:56:30;;;;;;;0.85;0.85;;;7.50;99.90;;;;;;4950255;28;20229;-80
2024/02/02 10:59:22;;;;;;;0.55;0.55;;;7.50;99.90;;;;;;4951645;28;20576;-82
2024/02/02 11:02:00;;;;;;;1.63;1.13;;;7.40;99.90;;;;;;4959216;28;20488;-80
2024/02/02 11:04:48;;;;;;;0.50;0.50;;;7.30;99.90;;;;;;4959151;28;20221;-80
2024/02/02 11:07:19;;;;;;;0.80;0.80;;;7.40;99.90;;;;;;4961469;28;20238;-81
2024/02/02 11:09:56;;;;;;;2.25;2.15;;;7.40;99.90;;;;;;4949907;28;20539;-81
2024/02/02 11:12:34;;;;;;;0.80;0.80;;;7.60;99.90;;;;;;4957944;28;20438;-81
2024/02/02 11:15:29;;;;;;;0.60;0.60;;;7.70;99.90;;;;;;4956958;28;20242;-81
2024/02/02 11:18:12;;;;;;;0.50;0.50;;;7.80;99.90;;;;;;4965852;28;20211;-79
2024/02/02 11:21:01;;;;;;;0.80;0.80;;;7.60;99.90;;;;;;4960907;29;20542;-81
2024/02/02 11:23:38;;;;;;;0.50;0.50;;;7.60;99.90;;;;;;4958379;28;20270;-82
2024/02/02 11:26:21;;;;;;;0.50;0.50;;;7.50;99.90;;;;;;4957988;28;20198;-81
2024/02/02 11:29:16;;;;;;;1.23;1.23;;;7.60;99.90;;;;;;4955867;28;20241;-78
2024/02/02 11:32:25;;;;;;;0.98;0.98;;;7.60;99.90;;;;;;4950365;29;20211;-82
2024/02/02 11:35:27;;;;;;;0.50;0.50;;;7.60;99.90;;;;;;4921802;29;20284;-85
2024/02/02 11:38:19;;;;;;;0.85;0.85;;;7.40;99.90;;;;;;4954486;28;20211;-79
2024/02/02 11:40:48;;;;;;;1.05;1.05;;;7.60;99.90;;;;;;4948909;28;20204;-79
2024/02/02 11:43:16;;;;;;;0.50;0.50;;;7.50;99.90;;;;;;4960463;28;20397;-82
2024/02/02 11:45:44;;;;;;;2.58;2.47;;;7.50;99.90;;;;;;4939126;29;20231;-80
2024/02/02 11:48:35;;;;;;;1.13;1.13;;;7.60;99.90;;;;;;4951981;29;20242;-80
2024/02/02 11:51:04;;;;;;;0.50;0.50;;;7.90;99.90;;;;;;4966955;28;20211;-84
2024/02/02 11:53:43;;;;;;;0.50;0.50;;;7.90;99.90;;;;;;4967928;28;20204;-84
2024/02/02 11:56:15;;;;;;;1.35;1.35;;;7.40;99.90;;;;;;4943933;28;20459;-81
2024/02/02 11:58:48;;;;;;;0.65;0.65;;;7.50;99.90;;;;;;4953758;28;20332;-81
2024/02/02 12:01:28;;;;;;;0.75;0.75;;;7.60;99.90;;;;;;4949223;28;20195;-81
2024/02/02 12:04:34;;;;;;;0.65;0.65;;;7.50;99.90;;;;;;4959899;29;20203;-81
2024/02/02 12:07:17;;;;;;;7.22;1.63;;;7.30;99.90;;;;;;4972454;28;20233;-84
2024/02/02 12:09:50;;;;;;;0.50;0.50;;;7.20;99.90;;;;;;4971450;28;20209;-85
2024/02/02 12:12:33;;;;;;;0.50;0.50;;;7.20;99.90;;;;;;4958163;28;20230;-81
2024/02/02 12:15:01;;;;;;;1.05;1.05;;;7.30;99.90;;;;;;4953807;28;20424;-84
2024/02/02 12:17:30;;;;;;;0.85;0.85;;;7.20;99.90;;;;;;4947408;28;20208;-83
2024/02/02 12:19:57;;;;;;;1.23;1.23;;;7.30;99.90;;;;;;4954361;29;20223;-82
2024/02/02 12:22:25;;;;;;;0.57;0.57;;;7.20;99.90;;;;;;4969468;28;20199;-79
2024/02/02 12:24:53;;;;;;;0.50;0.50;;;7.40;99.90;;;;;;4970805;28;20235;-80
2024/02/02 12:27:19;;;;;;;0.60;0.60;;;7.60;99.90;;;;;;4958756;28;20234;-82
2024/02/02 12:29:47;;;;;;;0.60;0.60;;;7.50;99.90;;;;;;4962023;28;20211;-81
2024/02/02 12:32:14;;;;;;;0.50;0.50;;;7.60;99.90;;;;;;4947818;28;20235;-80
2024/02/02 12:34:41;;;;;;;0.60;0.60;;;7.60;99.90;;;;;;4952033;29;20290;-79
2024/02/02 12:37:10;;;;;;;0.70;0.70;;;7.80;99.90;;;;;;4930192;29;20239;-80
2024/02/02 12:39:38;;;;;;;0.50;0.50;;;7.70;99.90;;;;;;4956349;28;20243;-79
2024/02/02 12:42:06;;;;;;;1.95;1.85;;;7.70;99.90;;;;;;4941567;28;20211;-80
2024/02/02 12:44:33;;;;;;;2.28;2.17;;;7.70;99.90;;;;;;4945186;29;20200;-80
2024/02/02 12:47:00;;;;;;;0.75;0.75;;;7.60;99.90;;;;;;4967635;28;20239;-81
2024/02/02 12:49:27;;;;;;;0.60;0.60;;;7.70;99.90;;;;;;4952524;29;20262;-80
2024/02/02 12:51:56;;;;;;;0.50;0.50;;;7.50;99.90;;;;;;4935374;28;20216;-81
2024/02/02 12:54:24;;;;;;;1.00;1.00;;;7.40;99.90;;;;;;4938485;29;20223;-78
2024/02/02 12:56:51;;;;;;;0.60;0.60;;;7.20;99.90;;;;;;4947076;29;20267;-82
2024/02/02 12:59:18;;;;;;;0.50;0.50;;;7.40;99.90;;;;;;4962947;28;20473;-82
2024/02/02 13:01:47;;;;;;;0.60;0.60;;;7.30;99.90;;;;;;4958070;28;20279;-81
2024/02/02 13:04:16;;;;;;;0.60;0.60;;;7.20;99.90;;;;;;4952291;29;20523;-80
2024/02/02 13:06:45;;;;;;;0.60;0.60;;;7.20;99.90;;;;;;4952553;28;20211;-80
2024/02/02 13:09:18;;;;;;;0.85;0.85;;;7.20;99.90;;;;;;4947281;28;20218;-81
2024/02/02 13:11:46;;;;;;;0.50;0.50;;;7.20;99.90;;;;;;4944219;29;20235;-81
2024/02/02 13:14:33;;;;;;;0.57;0.57;;;7.20;99.90;;;;;;4952262;28;20215;-79
2024/02/02 13:17:12;;;;;;;0.60;0.60;;;7.10;99.90;;;;;;4954466;28;20246;-79
2024/02/02 13:19:45;;;;;;;0.80;0.80;;;7.20;99.90;;;;;;4956695;28;20255;-78
2024/02/02 13:22:26;;;;;;;0.50;0.50;;;7.20;99.90;;;;;;4963199;28;20278;-82